sensor_id;sensor_type;location;lat;lon;timestamp;temperature;humidity
12847;DHT22;6492;48.128;8.320;2023-07-29T00:03:05;13.30;79.70
12847;DHT22;6492;48.128;8.320;2023-07-29T00:07:11;13.30;79.70
12847;DHT22;6492;48.128;8.320;2023-07-29T00:11:14;13.10;79.70
12847;DHT22;6492;48.128;8.320;2023-07-29T00:15:16;13.10;79.70
12847;DHT22;6492;48.128;8.320;2023-07-29T00:19:18;13.10;79.70
12847;DHT22;6492;48.128;8.320;2023-07-29T00:23:23;13.10;79.60
12847;DHT22;6492;48.128;8.320;2023-07-29T00:27:27;13.10;79.70
12847;DHT22;6492;48.128;8.320;2023-07-29T00:31:28;13.10;79.70
12847;DHT22;6492;48.128;8.320;2023-07-29T00:35:30;13.00;79.60
12847;DHT22;6492;48.128;8.320;2023-07-29T00:39:40;12.90;79.60
12847;DHT22;6492;48.128;8.320;2023-07-29T00:43:43;12.90;79.50
12847;DHT22;6492;48.128;8.320;2023-07-29T00:47:45;12.80;79.50
12847;DHT22;6492;48.128;8.320;2023-07-29T00:51:47;12.80;79.40
12847;DHT22;6492;48.128;8.320;2023-07-29T00:55:49;12.90;79.50
12847;DHT22;6492;48.128;8.320;2023-07-29T00:59:52;13.00;79.40
12847;DHT22;6492;48.128;8.320;2023-07-29T01:03:54;13.10;79.50
12847;DHT22;6492;48.128;8.320;2023-07-29T01:08:01;13.10;79.50
12847;DHT22;6492;48.128;8.320;2023-07-29T01:12:11;13.10;79.50
12847;DHT22;6492;48.128;8.320;2023-07-29T01:16:19;13.10;79.40
12847;DHT22;6492;48.128;8.320;2023-07-29T01:20:24;13.10;79.40
12847;DHT22;6492;48.128;8.320;2023-07-29T01:24:27;13.10;79.40
12847;DHT22;6492;48.128;8.320;2023-07-29T01:28:30;13.10;79.50
12847;DHT22;6492;48.128;8.320;2023-07-29T01:32:36;13.10;79.50
12847;DHT22;6492;48.128;8.320;2023-07-29T01:36:41;13.10;79.40
12847;DHT22;6492;48.128;8.320;2023-07-29T01:40:45;13.10;79.40
12847;DHT22;6492;48.128;8.320;2023-07-29T01:44:47;13.10;79.40
12847;DHT22;6492;48.128;8.320;2023-07-29T01:48:49;13.10;79.40
12847;DHT22;6492;48.128;8.320;2023-07-29T01:52:50;13.10;79.30
12847;DHT22;6492;48.128;8.320;2023-07-29T01:56:53;13.10;79.30
12847;DHT22;6492;48.128;8.320;2023-07-29T02:00:55;13.10;79.50
12847;DHT22;6492;48.128;8.320;2023-07-29T02:04:57;13.00;79.30
12847;DHT22;6492;48.128;8.320;2023-07-29T02:08:59;13.00;79.30
12847;DHT22;6492;48.128;8.320;2023-07-29T02:13:07;12.80;79.30
12847;DHT22;6492;48.128;8.320;2023-07-29T02:17:09;12.80;79.30
12847;DHT22;6492;48.128;8.320;2023-07-29T02:21:10;12.80;79.30
12847;DHT22;6492;48.128;8.320;2023-07-29T02:25:12;12.70;79.30
12847;DHT22;6492;48.128;8.320;2023-07-29T02:29:15;12.70;79.20
12847;DHT22;6492;48.128;8.320;2023-07-29T02:33:17;12.80;79.10
12847;DHT22;6492;48.128;8.320;2023-07-29T02:37:19;13.10;78.80
12847;DHT22;6492;48.128;8.320;2023-07-29T02:41:20;13.30;78.90
12847;DHT22;6492;48.128;8.320;2023-07-29T02:45:24;13.40;79.00
12847;DHT22;6492;48.128;8.320;2023-07-29T02:49:25;13.40;79.00
12847;DHT22;6492;48.128;8.320;2023-07-29T02:53:27;13.30;79.10
12847;DHT22;6492;48.128;8.320;2023-07-29T02:57:29;13.30;79.10
12847;DHT22;6492;48.128;8.320;2023-07-29T03:01:32;13.40;79.00
12847;DHT22;6492;48.128;8.320;2023-07-29T03:05:34;13.50;78.90
12847;DHT22;6492;48.128;8.320;2023-07-29T03:09:36;13.60;78.80
12847;DHT22;6492;48.128;8.320;2023-07-29T03:13:38;13.70;78.80
12847;DHT22;6492;48.128;8.320;2023-07-29T03:17:41;13.80;78.90
12847;DHT22;6492;48.128;8.320;2023-07-29T03:21:43;13.80;78.60
12847;DHT22;6492;48.128;8.320;2023-07-29T03:25:48;13.80;78.50
12847;DHT22;6492;48.128;8.320;2023-07-29T03:29:51;13.90;78.60
12847;DHT22;6492;48.128;8.320;2023-07-29T03:33:54;13.90;78.60
12847;DHT22;6492;48.128;8.320;2023-07-29T03:37:56;13.90;78.60
12847;DHT22;6492;48.128;8.320;2023-07-29T03:41:58;14.00;78.60
12847;DHT22;6492;48.128;8.320;2023-07-29T03:46:00;13.90;78.60
12847;DHT22;6492;48.128;8.320;2023-07-29T03:50:04;13.90;78.60
12847;DHT22;6492;48.128;8.320;2023-07-29T03:54:06;14.00;78.60
12847;DHT22;6492;48.128;8.320;2023-07-29T03:58:08;14.00;78.50
12847;DHT22;6492;48.128;8.320;2023-07-29T04:02:10;14.10;78.70
12847;DHT22;6492;48.128;8.320;2023-07-29T04:06:13;14.10;78.70
12847;DHT22;6492;48.128;8.320;2023-07-29T04:10:15;14.20;78.60
12847;DHT22;6492;48.128;8.320;2023-07-29T04:14:16;14.20;78.60
12847;DHT22;6492;48.128;8.320;2023-07-29T04:18:18;14.20;78.90
12847;DHT22;6492;48.128;8.320;2023-07-29T04:22:21;14.10;79.00
12847;DHT22;6492;48.128;8.320;2023-07-29T04:26:23;14.10;79.00
12847;DHT22;6492;48.128;8.320;2023-07-29T04:30:25;14.10;79.00
12847;DHT22;6492;48.128;8.320;2023-07-29T04:34:27;14.10;79.00
12847;DHT22;6492;48.128;8.320;2023-07-29T04:38:32;14.10;79.10
12847;DHT22;6492;48.128;8.320;2023-07-29T04:42:36;14.10;79.00
12847;DHT22;6492;48.128;8.320;2023-07-29T04:46:38;14.10;78.90
12847;DHT22;6492;48.128;8.320;2023-07-29T04:50:40;14.20;78.90
12847;DHT22;6492;48.128;8.320;2023-07-29T04:54:43;14.30;78.70
12847;DHT22;6492;48.128;8.320;2023-07-29T04:58:45;14.50;78.70
12847;DHT22;6492;48.128;8.320;2023-07-29T05:02:47;14.50;78.80
12847;DHT22;6492;48.128;8.320;2023-07-29T05:06:48;14.70;78.50
12847;DHT22;6492;48.128;8.320;2023-07-29T05:10:53;15.00;78.30
12847;DHT22;6492;48.128;8.320;2023-07-29T05:14:55;15.30;78.20
12847;DHT22;6492;48.128;8.320;2023-07-29T05:18:59;15.40;78.40
12847;DHT22;6492;48.128;8.320;2023-07-29T05:23:00;15.40;78.60
12847;DHT22;6492;48.128;8.320;2023-07-29T05:27:04;15.50;78.70
12847;DHT22;6492;48.128;8.320;2023-07-29T05:31:06;15.60;78.50
12847;DHT22;6492;48.128;8.320;2023-07-29T05:35:08;15.80;78.30
12847;DHT22;6492;48.128;8.320;2023-07-29T05:39:10;16.10;78.90
12847;DHT22;6492;48.128;8.320;2023-07-29T05:43:14;16.20;78.10
12847;DHT22;6492;48.128;8.320;2023-07-29T05:47:16;16.40;78.10
12847;DHT22;6492;48.128;8.320;2023-07-29T05:51:18;16.60;77.90
12847;DHT22;6492;48.128;8.320;2023-07-29T05:55:20;16.70;77.70
12847;DHT22;6492;48.128;8.320;2023-07-29T05:59:23;16.80;77.80
12847;DHT22;6492;48.128;8.320;2023-07-29T06:03:26;17.10;77.80
12847;DHT22;6492;48.128;8.320;2023-07-29T06:07:27;17.10;78.40
12847;DHT22;6492;48.128;8.320;2023-07-29T06:11:31;16.90;79.90
12847;DHT22;6492;48.128;8.320;2023-07-29T06:15:34;16.80;80.60
12847;DHT22;6492;48.128;8.320;2023-07-29T06:19:35;17.00;81.40
12847;DHT22;6492;48.128;8.320;2023-07-29T06:23:37;17.10;81.40
12847;DHT22;6492;48.128;8.320;2023-07-29T06:27:39;17.00;77.50
12847;DHT22;6492;48.128;8.320;2023-07-29T06:31:42;17.00;71.20
12847;DHT22;6492;48.128;8.320;2023-07-29T06:35:44;17.10;69.40
12847;DHT22;6492;48.128;8.320;2023-07-29T06:39:46;17.20;67.20
12847;DHT22;6492;48.128;8.320;2023-07-29T06:43:47;17.20;65.70
12847;DHT22;6492;48.128;8.320;2023-07-29T06:47:51;17.20;64.60
12847;DHT22;6492;48.128;8.320;2023-07-29T06:51:52;17.10;65.50
12847;DHT22;6492;48.128;8.320;2023-07-29T06:55:54;17.00;66.30
12847;DHT22;6492;48.128;8.320;2023-07-29T06:59:58;16.90;66.80
12847;DHT22;6492;48.128;8.320;2023-07-29T07:04:02;16.80;66.60
12847;DHT22;6492;48.128;8.320;2023-07-29T07:08:04;16.70;66.60
12847;DHT22;6492;48.128;8.320;2023-07-29T07:12:06;16.40;66.40
12847;DHT22;6492;48.128;8.320;2023-07-29T07:16:08;16.20;68.70
12847;DHT22;6492;48.128;8.320;2023-07-29T07:20:13;16.10;70.10
12847;DHT22;6492;48.128;8.320;2023-07-29T07:24:15;16.10;71.80
12847;DHT22;6492;48.128;8.320;2023-07-29T07:28:17;16.00;72.90
12847;DHT22;6492;48.128;8.320;2023-07-29T07:32:22;16.10;74.30
12847;DHT22;6492;48.128;8.320;2023-07-29T07:36:25;16.40;76.20
12847;DHT22;6492;48.128;8.320;2023-07-29T07:40:27;16.90;75.70
12847;DHT22;6492;48.128;8.320;2023-07-29T07:44:29;17.20;72.60
12847;DHT22;6492;48.128;8.320;2023-07-29T07:48:30;17.40;66.90
12847;DHT22;6492;48.128;8.320;2023-07-29T07:52:35;17.60;65.40
12847;DHT22;6492;48.128;8.320;2023-07-29T07:56:36;17.60;60.80
12847;DHT22;6492;48.128;8.320;2023-07-29T08:00:38;17.80;61.40
12847;DHT22;6492;48.128;8.320;2023-07-29T08:04:40;18.30;58.90
12847;DHT22;6492;48.128;8.320;2023-07-29T08:08:43;19.00;56.30
12847;DHT22;6492;48.128;8.320;2023-07-29T08:12:46;20.00;45.90
12847;DHT22;6492;48.128;8.320;2023-07-29T08:16:48;20.80;36.70
12847;DHT22;6492;48.128;8.320;2023-07-29T08:20:57;21.00;31.20
12847;DHT22;6492;48.128;8.320;2023-07-29T08:25:00;20.70;32.80
12847;DHT22;6492;48.128;8.320;2023-07-29T08:29:02;20.40;33.60
12847;DHT22;6492;48.128;8.320;2023-07-29T08:33:04;20.50;35.70
12847;DHT22;6492;48.128;8.320;2023-07-29T08:37:06;20.70;33.80
12847;DHT22;6492;48.128;8.320;2023-07-29T08:41:14;20.50;33.20
12847;DHT22;6492;48.128;8.320;2023-07-29T08:45:18;20.30;31.20
12847;DHT22;6492;48.128;8.320;2023-07-29T08:49:23;20.10;32.90
12847;DHT22;6492;48.128;8.320;2023-07-29T08:53:26;19.80;34.70
12847;DHT22;6492;48.128;8.320;2023-07-29T08:57:32;19.30;33.50
12847;DHT22;6492;48.128;8.320;2023-07-29T09:01:34;19.20;37.20
12847;DHT22;6492;48.128;8.320;2023-07-29T09:05:37;19.20;37.40
12847;DHT22;6492;48.128;8.320;2023-07-29T09:09:38;18.90;37.20
12847;DHT22;6492;48.128;8.320;2023-07-29T09:13:42;18.80;38.30
12847;DHT22;6492;48.128;8.320;2023-07-29T09:17:43;19.10;38.80
12847;DHT22;6492;48.128;8.320;2023-07-29T09:21:47;19.30;35.90
12847;DHT22;6492;48.128;8.320;2023-07-29T09:25:49;19.40;35.40
12847;DHT22;6492;48.128;8.320;2023-07-29T09:29:52;19.80;35.30
12847;DHT22;6492;48.128;8.320;2023-07-29T09:33:56;20.20;34.70
12847;DHT22;6492;48.128;8.320;2023-07-29T09:37:59;20.60;30.10
12847;DHT22;6492;48.128;8.320;2023-07-29T09:42:01;20.30;27.70
12847;DHT22;6492;48.128;8.320;2023-07-29T09:46:05;20.10;28.10
12847;DHT22;6492;48.128;8.320;2023-07-29T09:50:09;20.20;28.60
12847;DHT22;6492;48.128;8.320;2023-07-29T09:54:14;20.50;27.00
12847;DHT22;6492;48.128;8.320;2023-07-29T09:58:25;20.60;25.80
12847;DHT22;6492;48.128;8.320;2023-07-29T10:02:29;20.70;25.00
12847;DHT22;6492;48.128;8.320;2023-07-29T10:06:31;21.10;25.50
12847;DHT22;6492;48.128;8.320;2023-07-29T10:10:34;21.50;24.00
12847;DHT22;6492;48.128;8.320;2023-07-29T10:14:37;22.50;22.10
12847;DHT22;6492;48.128;8.320;2023-07-29T10:18:41;22.60;16.90
12847;DHT22;6492;48.128;8.320;2023-07-29T10:22:47;22.90;17.80
12847;DHT22;6492;48.128;8.320;2023-07-29T10:26:50;23.10;15.80
12847;DHT22;6492;48.128;8.320;2023-07-29T10:30:52;23.20;13.90
12847;DHT22;6492;48.128;8.320;2023-07-29T10:34:55;23.70;11.30
12847;DHT22;6492;48.128;8.320;2023-07-29T10:38:57;24.00;9.70
12847;DHT22;6492;48.128;8.320;2023-07-29T10:43:00;24.30;9.80
12847;DHT22;6492;48.128;8.320;2023-07-29T10:47:11;24.70;10.60
12847;DHT22;6492;48.128;8.320;2023-07-29T10:51:27;25.20;5.40
12847;DHT22;6492;48.128;8.320;2023-07-29T10:55:33;24.90;5.30
12847;DHT22;6492;48.128;8.320;2023-07-29T10:59:35;25.00;5.90
12847;DHT22;6492;48.128;8.320;2023-07-29T11:03:37;25.30;2.80
12847;DHT22;6492;48.128;8.320;2023-07-29T11:07:47;25.50;3.80
12847;DHT22;6492;48.128;8.320;2023-07-29T11:11:50;25.50;3.10
12847;DHT22;6492;48.128;8.320;2023-07-29T11:15:53;25.90;1.00
12847;DHT22;6492;48.128;8.320;2023-07-29T11:19:57;25.80;2.50
12847;DHT22;6492;48.128;8.320;2023-07-29T11:24:03;25.50;1.00
12847;DHT22;6492;48.128;8.320;2023-07-29T11:28:04;24.40;3.30
12847;DHT22;6492;48.128;8.320;2023-07-29T11:32:07;23.60;3.00
12847;DHT22;6492;48.128;8.320;2023-07-29T11:36:19;23.40;6.10
12847;DHT22;6492;48.128;8.320;2023-07-29T11:40:23;23.60;6.70
12847;DHT22;6492;48.128;8.320;2023-07-29T11:44:25;23.80;5.70
12847;DHT22;6492;48.128;8.320;2023-07-29T11:48:28;24.00;6.80
12847;DHT22;6492;48.128;8.320;2023-07-29T11:52:31;24.20;6.00
12847;DHT22;6492;48.128;8.320;2023-07-29T11:56:35;24.30;5.80
12847;DHT22;6492;48.128;8.320;2023-07-29T12:00:38;24.50;5.40
12847;DHT22;6492;48.128;8.320;2023-07-29T12:04:40;24.30;4.00
12847;DHT22;6492;48.128;8.320;2023-07-29T12:08:42;24.00;5.50
12847;DHT22;6492;48.128;8.320;2023-07-29T12:12:47;23.70;4.50
12847;DHT22;6492;48.128;8.320;2023-07-29T12:16:56;23.50;7.60
12847;DHT22;6492;48.128;8.320;2023-07-29T12:21:01;23.80;6.20
12847;DHT22;6492;48.128;8.320;2023-07-29T12:25:04;24.00;5.90
12847;DHT22;6492;48.128;8.320;2023-07-29T12:29:16;24.50;5.20
12847;DHT22;6492;48.128;8.320;2023-07-29T12:33:33;24.70;4.20
12847;DHT22;6492;48.128;8.320;2023-07-29T12:37:35;24.60;3.00
12847;DHT22;6492;48.128;8.320;2023-07-29T12:41:39;24.60;3.70
12847;DHT22;6492;48.128;8.320;2023-07-29T12:45:42;24.70;3.50
12847;DHT22;6492;48.128;8.320;2023-07-29T12:49:44;24.70;2.20
12847;DHT22;6492;48.128;8.320;2023-07-29T12:53:47;24.50;3.60
12847;DHT22;6492;48.128;8.320;2023-07-29T12:57:50;24.30;4.50
12847;DHT22;6492;48.128;8.320;2023-07-29T13:01:53;24.20;4.90
12847;DHT22;6492;48.128;8.320;2023-07-29T13:05:55;24.00;5.70
12847;DHT22;6492;48.128;8.320;2023-07-29T13:10:11;24.00;4.80
12847;DHT22;6492;48.128;8.320;2023-07-29T13:14:13;23.90;5.20
12847;DHT22;6492;48.128;8.320;2023-07-29T13:18:27;23.80;5.80
12847;DHT22;6492;48.128;8.320;2023-07-29T13:22:29;23.40;6.00
12847;DHT22;6492;48.128;8.320;2023-07-29T13:26:31;23.10;5.30
12847;DHT22;6492;48.128;8.320;2023-07-29T13:30:33;23.10;8.50
12847;DHT22;6492;48.128;8.320;2023-07-29T13:34:38;23.70;7.80
12847;DHT22;6492;48.128;8.320;2023-07-29T13:38:41;23.80;5.90
12847;DHT22;6492;48.128;8.320;2023-07-29T13:42:43;23.70;6.90
12847;DHT22;6492;48.128;8.320;2023-07-29T13:46:45;24.00;7.40
12847;DHT22;6492;48.128;8.320;2023-07-29T13:55:30;24.70;5.50
12847;DHT22;6492;48.128;8.320;2023-07-29T13:59:38;25.00;1.80
12847;DHT22;6492;48.128;8.320;2023-07-29T14:03:47;24.90;2.70
12847;DHT22;6492;48.128;8.320;2023-07-29T14:07:49;25.30;2.50
12847;DHT22;6492;48.128;8.320;2023-07-29T14:12:00;25.90;1.00
12847;DHT22;6492;48.128;8.320;2023-07-29T14:16:03;26.60;1.00
12847;DHT22;6492;48.128;8.320;2023-07-29T14:20:06;26.70;1.00
12847;DHT22;6492;48.128;8.320;2023-07-29T14:24:15;26.40;1.00
12847;DHT22;6492;48.128;8.320;2023-07-29T14:28:18;26.30;1.00
12847;DHT22;6492;48.128;8.320;2023-07-29T14:32:20;25.80;1.00
12847;DHT22;6492;48.128;8.320;2023-07-29T14:36:40;25.30;1.00
12847;DHT22;6492;48.128;8.320;2023-07-29T14:40:41;24.70;2.10
12847;DHT22;6492;48.128;8.320;2023-07-29T14:44:47;24.50;2.70
12847;DHT22;6492;48.128;8.320;2023-07-29T14:48:48;24.60;3.70
12847;DHT22;6492;48.128;8.320;2023-07-29T14:52:51;24.40;2.50
12847;DHT22;6492;48.128;8.320;2023-07-29T14:56:53;24.20;2.80
12847;DHT22;6492;48.128;8.320;2023-07-29T15:00:56;23.90;3.90
12847;DHT22;6492;48.128;8.320;2023-07-29T15:04:58;23.70;4.40
12847;DHT22;6492;48.128;8.320;2023-07-29T15:09:00;23.40;4.90
12847;DHT22;6492;48.128;8.320;2023-07-29T15:13:02;23.10;5.50
12847;DHT22;6492;48.128;8.320;2023-07-29T15:17:05;22.60;7.50
12847;DHT22;6492;48.128;8.320;2023-07-29T15:21:07;22.10;10.20
12847;DHT22;6492;48.128;8.320;2023-07-29T15:25:10;22.30;14.20
12847;DHT22;6492;48.128;8.320;2023-07-29T15:29:12;22.40;10.70
12847;DHT22;6492;48.128;8.320;2023-07-29T15:33:15;22.20;10.40
12847;DHT22;6492;48.128;8.320;2023-07-29T15:37:17;21.80;11.50
12847;DHT22;6492;48.128;8.320;2023-07-29T15:41:19;21.30;14.00
12847;DHT22;6492;48.128;8.320;2023-07-29T15:45:21;20.90;16.80
12847;DHT22;6492;48.128;8.320;2023-07-29T15:49:25;20.40;19.40
12847;DHT22;6492;48.128;8.320;2023-07-29T15:53:27;19.90;23.60
12847;DHT22;6492;48.128;8.320;2023-07-29T15:57:29;19.40;28.70
12847;DHT22;6492;48.128;8.320;2023-07-29T16:01:33;18.70;33.30
12847;DHT22;6492;48.128;8.320;2023-07-29T16:05:36;18.20;36.50
12847;DHT22;6492;48.128;8.320;2023-07-29T16:09:38;18.20;37.70
12847;DHT22;6492;48.128;8.320;2023-07-29T16:13:40;18.40;39.90
12847;DHT22;6492;48.128;8.320;2023-07-29T16:17:42;19.10;39.70
12847;DHT22;6492;48.128;8.320;2023-07-29T16:21:45;19.70;33.80
12847;DHT22;6492;48.128;8.320;2023-07-29T16:25:47;20.30;30.80
12847;DHT22;6492;48.128;8.320;2023-07-29T16:29:49;20.80;24.50
12847;DHT22;6492;48.128;8.320;2023-07-29T16:33:51;21.10;22.50
12847;DHT22;6492;48.128;8.320;2023-07-29T16:37:54;21.70;22.80
12847;DHT22;6492;48.128;8.320;2023-07-29T16:41:58;21.60;19.90
12847;DHT22;6492;48.128;8.320;2023-07-29T16:46:01;21.20;20.60
12847;DHT22;6492;48.128;8.320;2023-07-29T16:50:03;20.80;22.70
12847;DHT22;6492;48.128;8.320;2023-07-29T16:54:06;20.60;21.90
12847;DHT22;6492;48.128;8.320;2023-07-29T16:58:08;20.40;23.30
12847;DHT22;6492;48.128;8.320;2023-07-29T17:02:09;20.20;23.50
12847;DHT22;6492;48.128;8.320;2023-07-29T17:06:11;19.90;25.40
12847;DHT22;6492;48.128;8.320;2023-07-29T17:10:15;19.70;24.50
12847;DHT22;6492;48.128;8.320;2023-07-29T17:14:18;19.70;25.40
12847;DHT22;6492;48.128;8.320;2023-07-29T17:18:19;19.70;25.50
12847;DHT22;6492;48.128;8.320;2023-07-29T17:22:21;19.70;25.80
12847;DHT22;6492;48.128;8.320;2023-07-29T17:26:24;19.60;24.90
12847;DHT22;6492;48.128;8.320;2023-07-29T17:30:27;19.40;25.80
12847;DHT22;6492;48.128;8.320;2023-07-29T17:34:29;19.20;27.20
12847;DHT22;6492;48.128;8.320;2023-07-29T17:38:31;18.90;27.90
12847;DHT22;6492;48.128;8.320;2023-07-29T17:42:35;18.70;28.80
12847;DHT22;6492;48.128;8.320;2023-07-29T17:46:37;18.50;29.40
12847;DHT22;6492;48.128;8.320;2023-07-29T17:50:40;18.30;29.70
12847;DHT22;6492;48.128;8.320;2023-07-29T17:54:48;18.30;30.10
12847;DHT22;6492;48.128;8.320;2023-07-29T17:58:51;18.20;31.00
12847;DHT22;6492;48.128;8.320;2023-07-29T18:02:53;18.20;31.00
12847;DHT22;6492;48.128;8.320;2023-07-29T18:06:57;18.20;31.30
12847;DHT22;6492;48.128;8.320;2023-07-29T18:11:05;18.10;31.30
12847;DHT22;6492;48.128;8.320;2023-07-29T18:15:09;18.10;31.80
12847;DHT22;6492;48.128;8.320;2023-07-29T18:19:11;18.00;31.90
12847;DHT22;6492;48.128;8.320;2023-07-29T18:23:21;17.90;31.70
12847;DHT22;6492;48.128;8.320;2023-07-29T18:27:25;17.80;32.40
12847;DHT22;6492;48.128;8.320;2023-07-29T18:31:34;17.70;33.10
12847;DHT22;6492;48.128;8.320;2023-07-29T18:35:40;17.60;34.10
12847;DHT22;6492;48.128;8.320;2023-07-29T18:39:44;17.50;34.80
12847;DHT22;6492;48.128;8.320;2023-07-29T18:43:46;17.40;35.70
12847;DHT22;6492;48.128;8.320;2023-07-29T18:47:49;17.30;36.90
12847;DHT22;6492;48.128;8.320;2023-07-29T18:51:51;17.20;37.40
12847;DHT22;6492;48.128;8.320;2023-07-29T18:55:53;17.20;37.90
12847;DHT22;6492;48.128;8.320;2023-07-29T18:59:57;17.10;38.20
12847;DHT22;6492;48.128;8.320;2023-07-29T19:04:02;17.00;39.30
12847;DHT22;6492;48.128;8.320;2023-07-29T19:08:04;16.80;39.60
12847;DHT22;6492;48.128;8.320;2023-07-29T19:12:08;16.80;40.00
12847;DHT22;6492;48.128;8.320;2023-07-29T19:16:10;16.80;39.80
12847;DHT22;6492;48.128;8.320;2023-07-29T19:20:13;16.80;39.90
12847;DHT22;6492;48.128;8.320;2023-07-29T19:24:16;16.80;41.00
12847;DHT22;6492;48.128;8.320;2023-07-29T19:28:18;16.70;41.70
12847;DHT22;6492;48.128;8.320;2023-07-29T19:32:20;16.70;42.60
12847;DHT22;6492;48.128;8.320;2023-07-29T19:36:24;16.70;43.70
12847;DHT22;6492;48.128;8.320;2023-07-29T19:40:26;16.60;44.30
12847;DHT22;6492;48.128;8.320;2023-07-29T19:44:35;16.60;44.80
12847;DHT22;6492;48.128;8.320;2023-07-29T19:48:37;16.50;45.70
12847;DHT22;6492;48.128;8.320;2023-07-29T19:52:40;16.50;46.40
12847;DHT22;6492;48.128;8.320;2023-07-29T19:56:44;16.50;46.90
12847;DHT22;6492;48.128;8.320;2023-07-29T20:00:56;16.50;47.20
12847;DHT22;6492;48.128;8.320;2023-07-29T20:04:57;16.40;48.10
12847;DHT22;6492;48.128;8.320;2023-07-29T20:09:05;16.40;49.50
12847;DHT22;6492;48.128;8.320;2023-07-29T20:13:06;16.40;50.30
12847;DHT22;6492;48.128;8.320;2023-07-29T20:17:08;16.40;50.50
12847;DHT22;6492;48.128;8.320;2023-07-29T20:21:10;16.30;51.00
12847;DHT22;6492;48.128;8.320;2023-07-29T20:25:18;16.40;51.10
12847;DHT22;6492;48.128;8.320;2023-07-29T20:29:20;16.30;51.80
12847;DHT22;6492;48.128;8.320;2023-07-29T20:33:22;16.30;52.60
12847;DHT22;6492;48.128;8.320;2023-07-29T20:37:25;16.30;52.60
12847;DHT22;6492;48.128;8.320;2023-07-29T20:41:28;16.30;53.30
12847;DHT22;6492;48.128;8.320;2023-07-29T20:45:31;16.30;53.20
12847;DHT22;6492;48.128;8.320;2023-07-29T20:49:32;16.30;53.10
12847;DHT22;6492;48.128;8.320;2023-07-29T20:53:36;16.30;53.00
12847;DHT22;6492;48.128;8.320;2023-07-29T20:57:40;16.30;52.80
12847;DHT22;6492;48.128;8.320;2023-07-29T21:01:42;16.30;52.70
12847;DHT22;6492;48.128;8.320;2023-07-29T21:05:43;16.30;52.70
12847;DHT22;6492;48.128;8.320;2023-07-29T21:09:46;16.30;53.10
12847;DHT22;6492;48.128;8.320;2023-07-29T21:13:49;16.20;52.30
12847;DHT22;6492;48.128;8.320;2023-07-29T21:17:51;16.30;52.30
12847;DHT22;6492;48.128;8.320;2023-07-29T21:21:53;16.20;52.40
12847;DHT22;6492;48.128;8.320;2023-07-29T21:25:55;16.20;51.90
12847;DHT22;6492;48.128;8.320;2023-07-29T21:29:58;16.10;52.10
12847;DHT22;6492;48.128;8.320;2023-07-29T21:34:00;16.10;52.60
12847;DHT22;6492;48.128;8.320;2023-07-29T21:38:07;16.00;52.80
12847;DHT22;6492;48.128;8.320;2023-07-29T21:42:09;15.90;53.40
12847;DHT22;6492;48.128;8.320;2023-07-29T21:46:13;15.90;53.40
12847;DHT22;6492;48.128;8.320;2023-07-29T21:50:16;15.90;53.20
12847;DHT22;6492;48.128;8.320;2023-07-29T21:54:17;16.00;52.90
12847;DHT22;6492;48.128;8.320;2023-07-29T21:58:19;16.00;51.80
12847;DHT22;6492;48.128;8.320;2023-07-29T22:02:22;16.00;51.80
12847;DHT22;6492;48.128;8.320;2023-07-29T22:06:24;16.10;52.10
12847;DHT22;6492;48.128;8.320;2023-07-29T22:10:26;16.10;51.60
12847;DHT22;6492;48.128;8.320;2023-07-29T22:14:28;16.20;51.00
12847;DHT22;6492;48.128;8.320;2023-07-29T22:18:31;16.20;50.80
12847;DHT22;6492;48.128;8.320;2023-07-29T22:22:32;16.20;50.50
12847;DHT22;6492;48.128;8.320;2023-07-29T22:26:34;16.30;50.40
12847;DHT22;6492;48.128;8.320;2023-07-29T22:30:36;16.30;49.70
12847;DHT22;6492;48.128;8.320;2023-07-29T22:34:39;16.40;50.10
12847;DHT22;6492;48.128;8.320;2023-07-29T22:38:42;16.40;50.60
12847;DHT22;6492;48.128;8.320;2023-07-29T22:42:44;16.40;50.30
12847;DHT22;6492;48.128;8.320;2023-07-29T22:46:46;16.40;49.70
12847;DHT22;6492;48.128;8.320;2023-07-29T22:50:49;16.50;49.20
12847;DHT22;6492;48.128;8.320;2023-07-29T22:54:51;16.50;48.80
12847;DHT22;6492;48.128;8.320;2023-07-29T22:58:53;16.40;48.50
12847;DHT22;6492;48.128;8.320;2023-07-29T23:02:54;16.30;49.40
12847;DHT22;6492;48.128;8.320;2023-07-29T23:06:57;16.20;50.10
12847;DHT22;6492;48.128;8.320;2023-07-29T23:11:01;16.30;49.50
12847;DHT22;6492;48.128;8.320;2023-07-29T23:15:03;16.30;49.80
12847;DHT22;6492;48.128;8.320;2023-07-29T23:19:05;16.30;49.30
12847;DHT22;6492;48.128;8.320;2023-07-29T23:23:09;16.30;49.40
12847;DHT22;6492;48.128;8.320;2023-07-29T23:27:10;16.30;50.20
12847;DHT22;6492;48.128;8.320;2023-07-29T23:31:13;16.20;50.20
12847;DHT22;6492;48.128;8.320;2023-07-29T23:35:14;16.20;50.90
12847;DHT22;6492;48.128;8.320;2023-07-29T23:39:18;16.10;51.90
12847;DHT22;6492;48.128;8.320;2023-07-29T23:43:19;16.00;53.00
12847;DHT22;6492;48.128;8.320;2023-07-29T23:47:21;16.00;52.90
12847;DHT22;6492;48.128;8.320;2023-07-29T23:51:23;16.00;52.50
12847;DHT22;6492;48.128;8.320;2023-07-29T23:55:26;16.10;52.00
12847;DHT22;6492;48.128;8.320;2023-07-29T23:59:28;16.20;50.20
